Time;durP1;ratioP1;P1;durP2;ratioP2;P2;SDS_P1;SDS_P2;PMS_P1;PMS_P2;Temp;Humidity;BMP_temperature;BMP_pressure;BME280_temperature;BME280_humidity;BME280_pressure;Samples;Min_cycle;Max_cycle;Signal;HPM_P1;HPM_P2
2023/08/07 00:01:28;;;;;;;2.33;1.90;;;;;;;;;;5070867;28;20080;-67
2023/08/07 00:03:53;;;;;;;2.85;1.80;;;;;;;;;;5077470;28;20101;-66
2023/08/07 00:06:19;;;;;;;3.20;1.92;;;;;;;;;;5061664;28;20041;-66
2023/08/07 00:08:44;;;;;;;3.65;2.40;;;;;;;;;;5075394;28;20528;-66
2023/08/07 00:11:10;;;;;;;3.08;2.20;;;;;;;;;;5074087;28;20058;-66
2023/08/07 00:13:35;;;;;;;4.30;2.75;;;;;;;;;;5082836;28;20036;-66
2023/08/07 00:16:01;;;;;;;4.70;2.70;;;;;;;;;;5077707;28;20028;-66
2023/08/07 00:18:28;;;;;;;4.50;2.75;;;;;;;;;;5054228;28;20056;-66
2023/08/07 00:20:54;;;;;;;4.75;2.72;;;;;;;;;;5047923;28;20678;-66
2023/08/07 00:23:19;;;;;;;4.50;2.60;;;;;;;;;;5075816;28;20048;-65
2023/08/07 00:25:44;;;;;;;4.80;2.20;;;;;;;;;;5067080;28;20123;-66
2023/08/07 00:28:10;;;;;;;5.53;2.60;;;;;;;;;;5061175;28;20525;-66
2023/08/07 00:30:35;;;;;;;3.50;2.00;;;;;;;;;;5050863;28;20051;-66
2023/08/07 00:33:00;;;;;;;3.25;2.15;;;;;;;;;;5055366;28;20036;-66
2023/08/07 00:35:26;;;;;;;3.90;2.33;;;;;;;;;;5064070;28;20469;-66
2023/08/07 00:37:51;;;;;;;2.85;1.88;;;;;;;;;;5069762;28;20059;-66
2023/08/07 00:40:17;;;;;;;4.03;2.22;;;;;;;;;;5063608;28;20064;-66
2023/08/07 00:42:42;;;;;;;3.05;2.50;;;;;;;;;;5072782;28;20091;-66
2023/08/07 00:45:08;;;;;;;4.85;2.60;;;;;;;;;;5078945;28;20032;-65
2023/08/07 00:47:34;;;;;;;3.15;1.63;;;;;;;;;;5068788;28;20055;-65
2023/08/07 00:50:03;;;;;;;3.22;2.00;;;;;;;;;;5074934;28;20282;-66
2023/08/07 00:52:29;;;;;;;3.17;1.92;;;;;;;;;;5072531;28;20071;-65
2023/08/07 00:54:54;;;;;;;2.58;1.70;;;;;;;;;;5058932;28;20067;-65
2023/08/07 00:57:22;;;;;;;2.75;1.83;;;;;;;;;;5077411;28;20032;-66
2023/08/07 00:59:48;;;;;;;3.80;1.80;;;;;;;;;;5075368;28;20530;-66
2023/08/07 01:02:14;;;;;;;3.58;1.73;;;;;;;;;;5064709;28;20320;-66
2023/08/07 01:04:40;;;;;;;2.63;1.52;;;;;;;;;;5076596;28;20028;-67
2023/08/07 01:07:06;;;;;;;2.80;1.45;;;;;;;;;;5079234;28;20052;-67
2023/08/07 01:09:31;;;;;;;2.85;1.40;;;;;;;;;;5068036;28;20037;-67
2023/08/07 01:12:18;;;;;;;2.10;1.10;;;;;;;;;;5076212;28;20419;-67
2023/08/07 01:14:55;;;;;;;1.50;1.00;;;;;;;;;;5062841;28;20504;-67
2023/08/07 01:17:23;;;;;;;2.13;1.13;;;;;;;;;;5075345;28;20044;-66
2023/08/07 01:19:51;;;;;;;2.00;1.15;;;;;;;;;;5070170;28;20059;-66
2023/08/07 01:22:17;;;;;;;1.42;1.00;;;;;;;;;;5073235;28;20036;-66
2023/08/07 01:24:48;;;;;;;0.70;0.70;;;;;;;;;;5072553;28;20032;-66
2023/08/07 01:27:19;;;;;;;1.42;0.85;;;;;;;;;;5042614;28;20101;-66
2023/08/07 01:30:21;;;;;;;1.88;1.77;;;;;;;;;;5071378;28;20040;-66
2023/08/07 01:33:16;;;;;;;1.35;1.00;;;;;;;;;;5075055;28;20036;-66
2023/08/07 01:35:45;;;;;;;0.90;0.60;;;;;;;;;;5043284;28;20068;-66
2023/08/07 01:38:12;;;;;;;1.30;0.80;;;;;;;;;;5071904;28;20059;-66
2023/08/07 01:40:39;;;;;;;1.17;0.95;;;;;;;;;;5070228;28;20519;-66
2023/08/07 01:43:04;;;;;;;1.00;0.80;;;;;;;;;;5068274;28;20098;-66
2023/08/07 01:45:30;;;;;;;4.85;2.15;;;;;;;;;;5055367;28;20044;-66
2023/08/07 01:47:56;;;;;;;2.00;0.80;;;;;;;;;;5045051;28;20041;-66
2023/08/07 01:50:23;;;;;;;1.40;0.90;;;;;;;;;;5054668;28;20029;-66
2023/08/07 01:52:48;;;;;;;1.40;1.13;;;;;;;;;;5061429;28;20417;-66
2023/08/07 01:55:15;;;;;;;2.83;1.58;;;;;;;;;;5052025;28;20042;-66
2023/08/07 01:57:40;;;;;;;2.17;1.30;;;;;;;;;;5061361;28;20041;-66
2023/08/07 02:00:08;;;;;;;2.55;1.25;;;;;;;;;;5063426;28;20036;-66
2023/08/07 02:02:33;;;;;;;1.63;1.25;;;;;;;;;;5060611;28;20105;-66
2023/08/07 02:04:59;;;;;;;3.35;1.63;;;;;;;;;;5069405;28;20524;-66
2023/08/07 02:07:24;;;;;;;2.53;2.00;;;;;;;;;;5070672;28;20144;-66
2023/08/07 02:09:49;;;;;;;2.45;1.42;;;;;;;;;;5073649;28;20098;-66
2023/08/07 02:12:15;;;;;;;2.78;2.00;;;;;;;;;;5068021;28;20039;-66
2023/08/07 02:14:40;;;;;;;3.75;1.70;;;;;;;;;;5069168;28;20036;-66
2023/08/07 02:17:06;;;;;;;2.08;1.45;;;;;;;;;;5062200;28;20045;-66
2023/08/07 02:19:32;;;;;;;2.47;1.90;;;;;;;;;;5069653;28;20571;-66
2023/08/07 02:21:57;;;;;;;2.03;1.20;;;;;;;;;;5074298;28;20101;-66
2023/08/07 02:24:22;;;;;;;1.90;1.45;;;;;;;;;;5066968;28;20083;-66
2023/08/07 02:26:48;;;;;;;2.33;1.48;;;;;;;;;;5070399;28;20123;-66
2023/08/07 02:29:13;;;;;;;2.00;1.25;;;;;;;;;;5057114;28;20497;-66
2023/08/07 02:31:39;;;;;;;2.13;1.20;;;;;;;;;;5066582;28;20039;-66
2023/08/07 02:34:04;;;;;;;2.25;1.30;;;;;;;;;;5074891;28;20059;-66
2023/08/07 02:36:29;;;;;;;3.33;1.70;;;;;;;;;;5066901;28;20115;-66
2023/08/07 02:38:55;;;;;;;2.30;1.40;;;;;;;;;;5066991;28;20570;-66
2023/08/07 02:41:20;;;;;;;2.25;1.63;;;;;;;;;;5064738;28;20039;-66
2023/08/07 02:43:46;;;;;;;4.43;1.80;;;;;;;;;;5058528;28;20404;-66
2023/08/07 02:46:11;;;;;;;3.05;1.90;;;;;;;;;;5071881;28;20133;-66
2023/08/07 02:48:37;;;;;;;3.95;1.90;;;;;;;;;;5068497;28;20411;-66
2023/08/07 02:51:02;;;;;;;2.97;1.80;;;;;;;;;;5068300;28;20039;-66
2023/08/07 02:53:28;;;;;;;3.50;1.95;;;;;;;;;;5064733;28;20040;-66
2023/08/07 02:55:53;;;;;;;3.20;2.50;;;;;;;;;;5070528;28;20127;-66
2023/08/07 02:58:19;;;;;;;2.40;1.77;;;;;;;;;;5053472;28;20477;-66
2023/08/07 03:00:44;;;;;;;3.22;2.05;;;;;;;;;;5069843;28;20032;-66
2023/08/07 03:03:09;;;;;;;2.72;1.80;;;;;;;;;;5067061;28;20090;-66
2023/08/07 03:05:35;;;;;;;3.40;2.00;;;;;;;;;;5070688;28;20039;-66
2023/08/07 03:08:00;;;;;;;2.88;1.58;;;;;;;;;;5054397;28;20519;-66
2023/08/07 03:10:25;;;;;;;5.45;2.53;;;;;;;;;;5069205;28;20532;-67
2023/08/07 03:12:51;;;;;;;3.53;2.10;;;;;;;;;;5055894;28;20040;-66
2023/08/07 03:15:16;;;;;;;3.50;1.88;;;;;;;;;;5068744;28;20032;-66
2023/08/07 03:17:42;;;;;;;3.42;1.70;;;;;;;;;;5071127;28;20510;-66
2023/08/07 03:20:09;;;;;;;2.35;1.67;;;;;;;;;;5072319;28;20042;-66
2023/08/07 03:22:34;;;;;;;2.72;1.50;;;;;;;;;;5069653;28;20072;-66
2023/08/07 03:25:00;;;;;;;3.03;1.90;;;;;;;;;;5067613;28;20504;-66
2023/08/07 03:27:25;;;;;;;4.00;1.50;;;;;;;;;;5056114;28;20040;-66
2023/08/07 03:29:50;;;;;;;3.28;1.50;;;;;;;;;;5070516;28;20036;-65
2023/08/07 03:32:18;;;;;;;3.10;1.50;;;;;;;;;;5072516;28;20089;-66
2023/08/07 03:34:43;;;;;;;1.95;1.50;;;;;;;;;;5069929;28;20419;-66
2023/08/07 03:37:09;;;;;;;2.92;1.35;;;;;;;;;;5071687;28;20142;-66
2023/08/07 03:39:34;;;;;;;3.17;1.58;;;;;;;;;;5071176;28;20037;-66
2023/08/07 03:41:59;;;;;;;1.90;1.17;;;;;;;;;;5057103;28;20366;-66
2023/08/07 03:44:25;;;;;;;1.70;1.05;;;;;;;;;;5062875;28;20108;-65
2023/08/07 03:46:51;;;;;;;2.85;1.20;;;;;;;;;;5064933;28;20055;-65
2023/08/07 03:49:16;;;;;;;2.45;1.00;;;;;;;;;;5067651;28;20045;-66
2023/08/07 03:51:42;;;;;;;1.50;0.85;;;;;;;;;;5071477;28;20581;-65
2023/08/07 03:54:07;;;;;;;2.30;0.80;;;;;;;;;;5066121;28;20039;-66
2023/08/07 03:56:36;;;;;;;1.60;1.10;;;;;;;;;;5057723;28;20062;-66
2023/08/07 03:59:04;;;;;;;2.70;1.10;;;;;;;;;;5061791;28;20056;-66
2023/08/07 04:01:29;;;;;;;2.05;1.40;;;;;;;;;;5066209;28;20507;-66
2023/08/07 04:03:55;;;;;;;1.20;0.90;;;;;;;;;;5056334;28;20041;-66
2023/08/07 04:06:21;;;;;;;1.63;0.90;;;;;;;;;;5069339;28;20036;-66
2023/08/07 04:08:46;;;;;;;2.28;1.10;;;;;;;;;;5060813;28;20032;-67
2023/08/07 04:11:12;;;;;;;1.95;0.85;;;;;;;;;;5068815;28;20040;-67
2023/08/07 04:13:37;;;;;;;2.80;1.10;;;;;;;;;;5071986;28;20101;-67
2023/08/07 04:16:04;;;;;;;0.80;0.80;;;;;;;;;;5064163;28;20028;-67
2023/08/07 04:18:30;;;;;;;1.70;0.93;;;;;;;;;;5064556;28;20626;-67
2023/08/07 04:20:56;;;;;;;1.77;0.98;;;;;;;;;;5051559;28;20043;-67
2023/08/07 04:23:23;;;;;;;1.20;0.90;;;;;;;;;;5059263;28;20117;-67
2023/08/07 04:25:49;;;;;;;0.70;0.60;;;;;;;;;;5071705;28;20468;-66
2023/08/07 04:28:15;;;;;;;1.10;1.00;;;;;;;;;;5072311;28;20055;-66
2023/08/07 04:30:41;;;;;;;1.48;0.98;;;;;;;;;;5066221;28;20431;-66
2023/08/07 04:33:07;;;;;;;2.00;0.90;;;;;;;;;;5055681;28;20396;-66
2023/08/07 04:35:33;;;;;;;2.45;1.25;;;;;;;;;;5067110;28;20038;-66
2023/08/07 04:37:58;;;;;;;2.67;1.17;;;;;;;;;;5051615;28;20031;-65
2023/08/07 04:40:23;;;;;;;1.42;1.00;;;;;;;;;;5060035;28;20058;-66
2023/08/07 04:42:49;;;;;;;1.58;1.00;;;;;;;;;;5071097;28;20130;-66
2023/08/07 04:45:15;;;;;;;0.88;0.80;;;;;;;;;;5065648;28;20032;-66
2023/08/07 04:47:41;;;;;;;1.92;0.90;;;;;;;;;;5069898;28;20501;-66
2023/08/07 04:50:07;;;;;;;1.10;1.00;;;;;;;;;;5052225;28;20044;-66
2023/08/07 04:52:32;;;;;;;0.98;0.77;;;;;;;;;;5066277;28;20119;-66
2023/08/07 04:54:57;;;;;;;0.98;0.88;;;;;;;;;;5069664;28;20051;-66
2023/08/07 04:57:23;;;;;;;1.80;0.98;;;;;;;;;;5069633;28;20032;-66
2023/08/07 04:59:48;;;;;;;1.05;0.80;;;;;;;;;;5072038;28;20070;-66
2023/08/07 05:02:14;;;;;;;1.13;0.77;;;;;;;;;;5071580;28;20099;-67
2023/08/07 05:04:39;;;;;;;1.60;0.80;;;;;;;;;;5045599;28;20039;-66
2023/08/07 05:07:05;;;;;;;0.93;0.80;;;;;;;;;;5063861;28;20164;-66
2023/08/07 05:09:30;;;;;;;1.25;0.93;;;;;;;;;;5050572;28;20045;-67
2023/08/07 05:11:56;;;;;;;1.33;0.90;;;;;;;;;;5052460;28;20416;-65
2023/08/07 05:14:21;;;;;;;1.40;0.90;;;;;;;;;;5055815;28;20067;-67
2023/08/07 05:16:48;;;;;;;1.63;0.88;;;;;;;;;;5070188;28;20101;-66
2023/08/07 05:19:13;;;;;;;1.45;0.70;;;;;;;;;;5064235;28;20585;-67
2023/08/07 05:21:39;;;;;;;0.65;0.65;;;;;;;;;;5075982;28;20040;-66
2023/08/07 05:24:05;;;;;;;1.23;0.80;;;;;;;;;;5072904;28;20059;-67
2023/08/07 05:26:31;;;;;;;0.95;0.75;;;;;;;;;;5071969;28;20056;-66
2023/08/07 05:28:59;;;;;;;0.68;0.60;;;;;;;;;;5071677;28;20028;-67
2023/08/07 05:31:25;;;;;;;1.00;0.60;;;;;;;;;;5073762;28;20037;-66
2023/08/07 05:33:50;;;;;;;1.88;0.73;;;;;;;;;;5063278;28;20085;-67
2023/08/07 05:36:16;;;;;;;1.33;0.93;;;;;;;;;;5076227;28;20830;-66
2023/08/07 05:38:41;;;;;;;1.15;0.82;;;;;;;;;;5073700;28;20028;-66
2023/08/07 05:41:09;;;;;;;1.15;0.88;;;;;;;;;;5066681;28;20076;-66
2023/08/07 05:43:34;;;;;;;0.80;0.70;;;;;;;;;;5072985;28;20685;-66
2023/08/07 05:45:59;;;;;;;1.98;1.10;;;;;;;;;;5068128;28;20043;-67
2023/08/07 05:48:25;;;;;;;1.95;0.90;;;;;;;;;;5065833;28;20112;-66
2023/08/07 05:50:51;;;;;;;2.63;1.05;;;;;;;;;;5070414;28;20905;-67
2023/08/07 05:53:16;;;;;;;1.98;1.13;;;;;;;;;;5071428;28;20040;-67
2023/08/07 05:55:42;;;;;;;1.83;1.20;;;;;;;;;;5074176;28;20081;-67
2023/08/07 05:58:08;;;;;;;2.25;1.10;;;;;;;;;;5057427;28;20084;-67
2023/08/07 06:00:33;;;;;;;1.20;0.80;;;;;;;;;;5059794;28;20047;-67
2023/08/07 06:02:59;;;;;;;2.20;1.00;;;;;;;;;;5071444;28;20048;-67
2023/08/07 06:05:24;;;;;;;3.35;1.27;;;;;;;;;;5070385;28;20657;-67
2023/08/07 06:07:50;;;;;;;1.90;1.25;;;;;;;;;;5070116;28;20048;-66
2023/08/07 06:10:15;;;;;;;1.70;1.20;;;;;;;;;;5071355;28;20064;-67
2023/08/07 06:12:41;;;;;;;2.90;1.30;;;;;;;;;;5068880;28;20032;-66
2023/08/07 06:15:06;;;;;;;1.70;1.20;;;;;;;;;;5058168;28;20043;-66
2023/08/07 06:17:32;;;;;;;2.50;1.23;;;;;;;;;;5071988;28;20122;-66
2023/08/07 06:19:57;;;;;;;3.03;1.33;;;;;;;;;;5067647;28;20081;-66
2023/08/07 06:22:23;;;;;;;3.60;1.58;;;;;;;;;;5028181;28;20075;-67
2023/08/07 06:24:48;;;;;;;1.98;1.30;;;;;;;;;;5069756;28;20115;-66
2023/08/07 06:27:14;;;;;;;2.03;1.17;;;;;;;;;;5068936;28;20071;-66
2023/08/07 06:29:39;;;;;;;2.50;1.52;;;;;;;;;;5053119;28;20035;-66
2023/08/07 06:32:05;;;;;;;2.30;1.73;;;;;;;;;;5069172;28;20056;-66
2023/08/07 06:34:31;;;;;;;2.70;1.85;;;;;;;;;;5070857;28;20466;-66
2023/08/07 06:36:56;;;;;;;2.65;1.52;;;;;;;;;;5068747;28;20051;-66
2023/08/07 06:39:22;;;;;;;3.38;1.63;;;;;;;;;;5054962;28;20123;-66
2023/08/07 06:41:47;;;;;;;2.30;1.65;;;;;;;;;;5045875;28;20043;-66
2023/08/07 06:44:13;;;;;;;1.92;1.40;;;;;;;;;;5053360;28;20079;-66
2023/08/07 06:46:38;;;;;;;2.47;1.58;;;;;;;;;;5053855;28;20044;-67
2023/08/07 06:49:03;;;;;;;2.53;1.48;;;;;;;;;;5063645;28;20036;-66
2023/08/07 06:51:29;;;;;;;2.97;1.55;;;;;;;;;;5062624;28;20037;-66
2023/08/07 06:53:54;;;;;;;3.00;1.80;;;;;;;;;;5060595;28;20044;-66
2023/08/07 06:56:20;;;;;;;5.18;1.90;;;;;;;;;;5052144;28;20036;-66
2023/08/07 06:58:45;;;;;;;4.63;1.90;;;;;;;;;;5054597;28;20059;-66
2023/08/07 07:01:11;;;;;;;3.10;1.77;;;;;;;;;;5065875;28;20461;-66
2023/08/07 07:03:36;;;;;;;3.05;2.00;;;;;;;;;;5064361;28;20043;-67
2023/08/07 07:06:02;;;;;;;3.88;1.70;;;;;;;;;;5065161;28;20036;-67
2023/08/07 07:08:27;;;;;;;3.00;1.50;;;;;;;;;;5068754;28;20056;-66
2023/08/07 07:10:53;;;;;;;3.58;1.80;;;;;;;;;;5068144;28;20413;-66
2023/08/07 07:13:18;;;;;;;2.75;1.48;;;;;;;;;;5058098;28;20037;-65
2023/08/07 07:15:44;;;;;;;2.33;1.70;;;;;;;;;;5072324;28;20032;-70
2023/08/07 07:18:09;;;;;;;3.15;1.73;;;;;;;;;;5066607;28;20052;-66
2023/08/07 07:20:34;;;;;;;3.28;1.45;;;;;;;;;;5040957;28;20162;-66
2023/08/07 07:23:00;;;;;;;1.83;1.23;;;;;;;;;;5061818;28;20036;-67
2023/08/07 07:25:25;;;;;;;2.67;1.00;;;;;;;;;;5070950;28;20046;-67
2023/08/07 07:27:51;;;;;;;2.70;1.13;;;;;;;;;;5058812;28;20032;-66
2023/08/07 07:30:16;;;;;;;2.20;1.42;;;;;;;;;;5069042;28;20044;-66
2023/08/07 07:32:42;;;;;;;1.73;1.15;;;;;;;;;;5062632;28;20159;-66
2023/08/07 07:35:08;;;;;;;2.08;1.25;;;;;;;;;;5069648;28;20032;-66
2023/08/07 07:37:33;;;;;;;1.10;0.85;;;;;;;;;;5069875;28;20484;-66
2023/08/07 07:39:59;;;;;;;0.95;0.73;;;;;;;;;;5055154;28;20041;-66
2023/08/07 07:42:25;;;;;;;0.85;0.60;;;;;;;;;;5073264;28;20028;-66
2023/08/07 07:44:50;;;;;;;0.60;0.60;;;;;;;;;;5065591;28;20045;-66
2023/08/07 07:47:16;;;;;;;0.80;0.60;;;;;;;;;;5065230;28;20182;-66
2023/08/07 07:49:49;;;;;;;0.50;0.40;;;;;;;;;;5068925;28;20086;-66
2023/08/07 07:52:14;;;;;;;0.75;0.50;;;;;;;;;;5068219;28;20032;-66
2023/08/07 07:54:40;;;;;;;0.40;0.40;;;;;;;;;;5059115;28;20077;-66
2023/08/07 07:57:05;;;;;;;0.52;0.50;;;;;;;;;;5062291;28;20152;-66
2023/08/07 07:59:31;;;;;;;0.40;0.40;;;;;;;;;;5064010;28;20566;-67
2023/08/07 08:01:56;;;;;;;0.63;0.50;;;;;;;;;;5070234;28;20036;-67
2023/08/07 08:04:22;;;;;;;0.40;0.40;;;;;;;;;;5067211;28;20044;-66
2023/08/07 08:06:48;;;;;;;0.45;0.43;;;;;;;;;;5061569;28;20103;-66
2023/08/07 08:09:13;;;;;;;1.30;0.80;;;;;;;;;;5054067;28;20417;-66
2023/08/07 08:11:39;;;;;;;0.90;0.60;;;;;;;;;;5068968;28;20105;-66
2023/08/07 08:14:04;;;;;;;0.95;0.70;;;;;;;;;;5058002;28;20058;-66
2023/08/07 08:16:29;;;;;;;1.73;0.90;;;;;;;;;;5062704;28;20044;-66
2023/08/07 08:18:55;;;;;;;0.88;0.73;;;;;;;;;;5067484;28;20638;-66
2023/08/07 08:21:20;;;;;;;1.38;1.10;;;;;;;;;;5062860;28;20033;-66
2023/08/07 08:23:46;;;;;;;2.38;1.25;;;;;;;;;;5028163;28;20043;-66
2023/08/07 08:26:11;;;;;;;1.73;1.42;;;;;;;;;;5054375;28;20055;-66
2023/08/07 08:28:38;;;;;;;0.93;0.80;;;;;;;;;;5056281;28;20455;-66
2023/08/07 08:31:03;;;;;;;1.48;1.00;;;;;;;;;;5067377;28;20040;-66
2023/08/07 08:33:29;;;;;;;1.58;0.80;;;;;;;;;;5067120;28;20044;-65
2023/08/07 08:35:54;;;;;;;1.92;0.70;;;;;;;;;;5061195;28;20171;-67
2023/08/07 08:38:21;;;;;;;2.03;0.80;;;;;;;;;;5063966;28;20041;-66
2023/08/07 08:40:47;;;;;;;1.48;0.93;;;;;;;;;;5065942;28;20039;-66
2023/08/07 08:43:13;;;;;;;2.10;0.57;;;;;;;;;;5067600;28;20115;-67
2023/08/07 08:45:40;;;;;;;1.73;0.77;;;;;;;;;;5071611;28;20047;-66
2023/08/07 08:48:09;;;;;;;1.70;0.70;;;;;;;;;;5071741;28;20131;-66
2023/08/07 08:50:37;;;;;;;2.60;1.02;;;;;;;;;;5059301;28;20153;-67
2023/08/07 08:53:02;;;;;;;1.75;0.68;;;;;;;;;;5067578;28;20093;-67
2023/08/07 08:55:29;;;;;;;1.25;0.80;;;;;;;;;;5073080;28;20050;-66
2023/08/07 08:57:55;;;;;;;1.27;0.70;;;;;;;;;;5072026;28;20036;-66
2023/08/07 09:00:21;;;;;;;1.08;0.77;;;;;;;;;;5070954;28;20043;-66
2023/08/07 09:02:51;;;;;;;2.53;0.90;;;;;;;;;;5070247;28;20044;-66
2023/08/07 09:05:19;;;;;;;2.45;0.90;;;;;;;;;;5050539;28;20242;-66
2023/08/07 09:07:46;;;;;;;2.10;0.90;;;;;;;;;;5064353;28;20032;-66
2023/08/07 09:10:13;;;;;;;1.48;0.85;;;;;;;;;;5077653;28;20511;-66
2023/08/07 09:12:41;;;;;;;1.33;0.90;;;;;;;;;;5071394;28;20079;-66
2023/08/07 09:15:10;;;;;;;1.83;1.00;;;;;;;;;;5066845;28;20071;-66
2023/08/07 09:17:40;;;;;;;0.98;0.73;;;;;;;;;;5060537;28;20048;-66
2023/08/07 09:20:10;;;;;;;1.17;0.85;;;;;;;;;;5056634;28;20036;-66
2023/08/07 09:22:36;;;;;;;1.63;1.17;;;;;;;;;;5075033;28;20542;-66
2023/08/07 09:25:01;;;;;;;1.27;0.85;;;;;;;;;;5073980;28;20043;-66
2023/08/07 09:27:28;;;;;;;2.25;1.00;;;;;;;;;;5068021;28;20606;-75
2023/08/07 09:29:55;;;;;;;1.42;1.00;;;;;;;;;;5060248;28;20084;-66
2023/08/07 09:32:22;;;;;;;1.48;0.85;;;;;;;;;;5069541;28;20048;-66
2023/08/07 09:34:48;;;;;;;1.23;0.60;;;;;;;;;;5072526;28;20455;-67
2023/08/07 09:37:14;;;;;;;0.60;0.60;;;;;;;;;;5073531;28;20032;-66
2023/08/07 09:39:40;;;;;;;1.20;0.57;;;;;;;;;;5071424;28;20032;-66
2023/08/07 09:42:30;;;;;;;1.52;0.70;;;;;;;;;;5071773;28;20040;-66
2023/08/07 09:44:55;;;;;;;1.63;0.60;;;;;;;;;;5062357;28;20053;-66
2023/08/07 09:47:20;;;;;;;2.20;0.63;;;;;;;;;;5068449;28;20047;-66
2023/08/07 09:56:29;;;;;;;2.03;0.60;;;;;;;;;;5042116;28;20064;-66
2023/08/07 09:58:58;;;;;;;1.25;0.60;;;;;;;;;;5053903;28;20052;-66
2023/08/07 10:01:25;;;;;;;0.95;0.60;;;;;;;;;;5048730;28;20507;-66
2023/08/07 10:03:51;;;;;;;0.65;0.50;;;;;;;;;;5061098;28;20124;-67
2023/08/07 10:06:18;;;;;;;1.38;0.50;;;;;;;;;;5065643;28;20040;-66
2023/08/07 10:08:45;;;;;;;0.98;0.60;;;;;;;;;;5036897;28;20127;-66
2023/08/07 10:11:11;;;;;;;1.35;0.63;;;;;;;;;;5071130;28;20408;-66
2023/08/07 10:13:38;;;;;;;1.60;0.60;;;;;;;;;;5066092;28;20052;-66
2023/08/07 10:16:03;;;;;;;0.30;0.30;;;;;;;;;;5064012;28;20143;-66
2023/08/07 10:18:29;;;;;;;2.03;0.60;;;;;;;;;;5071417;28;20123;-66
2023/08/07 10:20:57;;;;;;;2.60;0.45;;;;;;;;;;5064047;28;20047;-66
2023/08/07 10:23:23;;;;;;;0.95;0.60;;;;;;;;;;5050682;28;20067;-66
2023/08/07 10:25:50;;;;;;;0.70;0.50;;;;;;;;;;5071750;28;20313;-66
2023/08/07 10:28:18;;;;;;;1.27;0.80;;;;;;;;;;5072915;28;20146;-66
2023/08/07 10:30:44;;;;;;;0.82;0.60;;;;;;;;;;5071750;28;20047;-66
2023/08/07 10:33:11;;;;;;;1.20;0.60;;;;;;;;;;5073112;28;20451;-66
2023/08/07 10:35:37;;;;;;;1.42;0.68;;;;;;;;;;5055356;28;20048;-66
2023/08/07 10:38:10;;;;;;;0.93;0.55;;;;;;;;;;5070420;28;20731;-66
2023/08/07 10:41:12;;;;;;;1.15;0.50;;;;;;;;;;5072416;28;20763;-66
2023/08/07 10:43:47;;;;;;;1.75;0.80;;;;;;;;;;5037426;28;20032;-67
2023/08/07 10:46:15;;;;;;;1.00;0.63;;;;;;;;;;5054000;28;20061;-66
2023/08/07 10:48:43;;;;;;;0.95;0.77;;;;;;;;;;5063183;28;20075;-66
2023/08/07 10:51:12;;;;;;;1.15;0.70;;;;;;;;;;5064289;28;20039;-66
2023/08/07 10:53:44;;;;;;;0.80;0.60;;;;;;;;;;5049342;28;20516;-66
2023/08/07 10:56:29;;;;;;;2.45;0.70;;;;;;;;;;5045749;28;20032;-66
2023/08/07 10:58:55;;;;;;;1.55;0.65;;;;;;;;;;5043239;28;20133;-66
2023/08/07 11:08:23;;;;;;;2.15;0.65;;;;;;;;;;5028703;28;21394;-66
2023/08/07 11:10:49;;;;;;;1.40;0.60;;;;;;;;;;5038112;28;20028;-66
2023/08/07 11:13:14;;;;;;;0.80;0.68;;;;;;;;;;5049179;28;20032;-66
2023/08/07 11:15:40;;;;;;;1.40;0.90;;;;;;;;;;5057713;28;20031;-66
2023/08/07 11:18:05;;;;;;;1.42;0.80;;;;;;;;;;5053296;28;20153;-66
2023/08/07 11:20:32;;;;;;;1.77;0.80;;;;;;;;;;5065056;28;20048;-66
2023/08/07 11:22:59;;;;;;;1.15;0.80;;;;;;;;;;5059145;28;20342;-66
2023/08/07 11:25:26;;;;;;;2.42;1.17;;;;;;;;;;5065512;28;20105;-66
2023/08/07 11:27:51;;;;;;;1.88;0.82;;;;;;;;;;5067201;28;20036;-66
2023/08/07 11:30:17;;;;;;;1.30;0.75;;;;;;;;;;5057316;28;20637;-65
2023/08/07 11:32:42;;;;;;;2.33;1.05;;;;;;;;;;5044931;28;20378;-65
2023/08/07 11:35:08;;;;;;;2.53;1.00;;;;;;;;;;5064856;28;20134;-66
2023/08/07 11:37:33;;;;;;;1.83;1.00;;;;;;;;;;5069085;28;20102;-66
2023/08/07 11:40:02;;;;;;;1.42;0.80;;;;;;;;;;5069450;28;20033;-66
2023/08/07 11:42:28;;;;;;;2.15;0.75;;;;;;;;;;5061905;28;20119;-66
2023/08/07 11:44:54;;;;;;;0.68;0.60;;;;;;;;;;5059646;28;20127;-65
2023/08/07 11:47:19;;;;;;;1.80;0.70;;;;;;;;;;5062075;28;20060;-66
2023/08/07 11:49:46;;;;;;;0.73;0.70;;;;;;;;;;5054940;28;20081;-65
2023/08/07 11:52:13;;;;;;;0.93;0.80;;;;;;;;;;5066856;28;20035;-66
2023/08/07 11:54:39;;;;;;;1.95;0.80;;;;;;;;;;5068957;28;20445;-66
2023/08/07 11:57:17;;;;;;;3.88;0.90;;;;;;;;;;5066669;28;20039;-68
2023/08/07 11:59:47;;;;;;;1.10;0.82;;;;;;;;;;5042027;28;20083;-67
2023/08/07 12:02:12;;;;;;;1.00;0.70;;;;;;;;;;5063694;28;20578;-67
2023/08/07 12:04:38;;;;;;;0.98;0.60;;;;;;;;;;5062739;28;20040;-67
2023/08/07 12:07:03;;;;;;;5.40;1.00;;;;;;;;;;5043799;28;20069;-66
2023/08/07 12:09:30;;;;;;;1.42;0.60;;;;;;;;;;5052284;28;20701;-68
2023/08/07 12:11:57;;;;;;;1.30;0.60;;;;;;;;;;5054125;28;20045;-68
2023/08/07 12:14:22;;;;;;;1.40;0.70;;;;;;;;;;5043893;28;20405;-68
2023/08/07 12:16:49;;;;;;;1.35;0.60;;;;;;;;;;5063255;28;20041;-68
2023/08/07 12:19:16;;;;;;;1.98;0.50;;;;;;;;;;5067338;28;20044;-68
2023/08/07 12:21:41;;;;;;;0.88;0.63;;;;;;;;;;5063593;28;20537;-67
2023/08/07 12:24:07;;;;;;;1.38;0.70;;;;;;;;;;5048918;28;20036;-67
2023/08/07 12:26:33;;;;;;;1.17;0.60;;;;;;;;;;5056881;28;20032;-67
2023/08/07 12:28:58;;;;;;;1.15;0.60;;;;;;;;;;5064694;28;20032;-67
2023/08/07 12:31:24;;;;;;;1.42;0.50;;;;;;;;;;5065968;28;20040;-67
2023/08/07 12:33:49;;;;;;;1.88;0.70;;;;;;;;;;5068549;28;20976;-66
2023/08/07 12:36:14;;;;;;;2.20;0.70;;;;;;;;;;5061292;28;20032;-67
2023/08/07 12:38:40;;;;;;;1.30;0.55;;;;;;;;;;5061157;28;20033;-67
2023/08/07 12:41:06;;;;;;;0.88;0.70;;;;;;;;;;5053220;28;20149;-66
2023/08/07 12:43:31;;;;;;;1.95;0.60;;;;;;;;;;5066714;28;20062;-67
2023/08/07 12:45:57;;;;;;;1.42;0.60;;;;;;;;;;5065242;28;20032;-67
2023/08/07 12:48:22;;;;;;;1.35;0.57;;;;;;;;;;5063629;28;20058;-67
2023/08/07 12:50:47;;;;;;;2.13;0.75;;;;;;;;;;5064427;28;20036;-67
2023/08/07 12:53:13;;;;;;;1.85;0.90;;;;;;;;;;5063086;28;20040;-67
2023/08/07 12:55:38;;;;;;;2.58;0.70;;;;;;;;;;5055076;28;20045;-67
2023/08/07 12:58:04;;;;;;;1.98;0.70;;;;;;;;;;5063824;28;20450;-68
2023/08/07 13:00:29;;;;;;;1.83;0.90;;;;;;;;;;5063366;28;20048;-68
2023/08/07 13:02:55;;;;;;;1.48;0.60;;;;;;;;;;5063378;28;20039;-70
2023/08/07 13:05:21;;;;;;;1.65;0.80;;;;;;;;;;5068440;28;20527;-69
2023/08/07 13:07:47;;;;;;;2.53;0.90;;;;;;;;;;5055101;28;20046;-67
2023/08/07 13:10:16;;;;;;;3.65;1.38;;;;;;;;;;5064861;28;20098;-67
2023/08/07 13:12:43;;;;;;;1.80;0.60;;;;;;;;;;5065155;28;20529;-67
2023/08/07 13:15:12;;;;;;;2.50;0.88;;;;;;;;;;5065233;28;20046;-68
2023/08/07 13:17:38;;;;;;;2.35;0.98;;;;;;;;;;5066928;28;20087;-68
2023/08/07 13:20:12;;;;;;;1.67;0.70;;;;;;;;;;5051740;28;20070;-68
2023/08/07 13:22:38;;;;;;;2.53;0.80;;;;;;;;;;5056130;28;20552;-70
2023/08/07 13:25:05;;;;;;;2.75;1.00;;;;;;;;;;5066749;28;20032;-69
2023/08/07 13:27:31;;;;;;;3.00;1.00;;;;;;;;;;5068783;28;20115;-79
2023/08/07 13:29:56;;;;;;;2.08;0.80;;;;;;;;;;5063196;28;20070;-67
2023/08/07 13:32:22;;;;;;;3.75;1.20;;;;;;;;;;5045586;28;20044;-67
2023/08/07 13:34:47;;;;;;;2.67;1.00;;;;;;;;;;5036494;28;20123;-66
2023/08/07 13:37:14;;;;;;;2.35;1.05;;;;;;;;;;5056812;28;20139;-68
2023/08/07 13:39:40;;;;;;;2.88;0.90;;;;;;;;;;5071394;28;20044;-67
2023/08/07 13:42:05;;;;;;;1.67;0.90;;;;;;;;;;5066736;28;20056;-66
2023/08/07 13:44:31;;;;;;;2.63;0.80;;;;;;;;;;5054519;28;20588;-68
2023/08/07 13:46:56;;;;;;;2.75;1.20;;;;;;;;;;5032530;28;20206;-66
2023/08/07 13:49:24;;;;;;;3.25;1.38;;;;;;;;;;5027903;28;20527;-67
2023/08/07 13:51:50;;;;;;;3.47;1.38;;;;;;;;;;5051726;28;20464;-69
2023/08/07 13:54:16;;;;;;;5.10;1.80;;;;;;;;;;5043596;28;20111;-66
2023/08/07 13:56:41;;;;;;;2.65;1.27;;;;;;;;;;5040984;28;20064;-67
2023/08/07 13:59:07;;;;;;;4.63;1.60;;;;;;;;;;5068446;28;20264;-67
2023/08/07 14:01:35;;;;;;;4.20;1.40;;;;;;;;;;5065587;28;20035;-69
2023/08/07 14:04:01;;;;;;;5.43;1.60;;;;;;;;;;5067215;28;20059;-67
2023/08/07 14:06:26;;;;;;;4.18;1.73;;;;;;;;;;5070138;28;20040;-69
2023/08/07 14:08:52;;;;;;;6.90;2.38;;;;;;;;;;5069590;28;20128;-69
2023/08/07 14:11:19;;;;;;;5.25;1.73;;;;;;;;;;5059131;28;20072;-66
2023/08/07 14:13:45;;;;;;;4.30;1.90;;;;;;;;;;5050423;28;20037;-67
2023/08/07 14:16:11;;;;;;;3.80;1.30;;;;;;;;;;5056657;28;20153;-66
2023/08/07 14:18:36;;;;;;;3.90;1.50;;;;;;;;;;5065890;28;20577;-68
2023/08/07 14:21:01;;;;;;;5.50;1.70;;;;;;;;;;5065257;28;20050;-68
2023/08/07 14:23:27;;;;;;;3.97;2.00;;;;;;;;;;5062265;28;20047;-67
2023/08/07 14:25:52;;;;;;;6.43;1.88;;;;;;;;;;5070639;28;20682;-66
2023/08/07 14:28:18;;;;;;;5.22;1.80;;;;;;;;;;5074084;28;20029;-68
2023/08/07 14:30:44;;;;;;;5.68;2.00;;;;;;;;;;5066697;28;20152;-68
2023/08/07 14:33:09;;;;;;;6.30;1.80;;;;;;;;;;5068598;28;20544;-68
2023/08/07 14:35:34;;;;;;;5.97;1.85;;;;;;;;;;5071010;28;20386;-68
2023/08/07 14:38:00;;;;;;;5.30;1.73;;;;;;;;;;5059476;28;20047;-68
2023/08/07 14:40:26;;;;;;;4.07;1.80;;;;;;;;;;5066577;28;20043;-69
2023/08/07 14:42:51;;;;;;;3.63;1.40;;;;;;;;;;5065865;28;20032;-68
2023/08/07 14:45:17;;;;;;;5.78;2.33;;;;;;;;;;5068705;28;20028;-68
2023/08/07 14:47:43;;;;;;;4.20;1.65;;;;;;;;;;5068308;28;20044;-69
2023/08/07 14:50:09;;;;;;;3.53;1.77;;;;;;;;;;5071123;28;20027;-69
2023/08/07 14:52:36;;;;;;;5.50;1.70;;;;;;;;;;5056806;28;20044;-68